Terminal Aerodrome Forecast
Issued by NWS Upton, NY

Home | Current Version | Previous Version | Text Only | Print | Product List | Glossary On
Versions: 1 2 3 4 5 6 7 8 9 10 11 12 13 14 15 16 17 18 19 20 21 22 23 24 25 26 27 28 29 30
000
FTUS41 KOKX 211554 AAB
TAFLGA
TAF AMD
KLGA 211554Z 2116/2212 25008KT P6SM SCT250
     FM211800 22011G17KT P6SM FEW050 SCT250
     FM212100 18013G19KT P6SM FEW050 SCT250
     FM220100 21008KT P6SM SCT150 BKN250
     FM221000 21007KT P6SM FEW010 SCT150 BKN250=

USA.gov is the U.S. government's official web portal to all federal, state and local government web resources and services.